sensor_id;sensor_type;location;lat;lon;timestamp;temperature;humidity
16655;DHT22;8441;51.344;7.022;2023-09-18T00:00:07;19.00;99.90
16655;DHT22;8441;51.344;7.022;2023-09-18T00:02:38;19.00;99.90
16655;DHT22;8441;51.344;7.022;2023-09-18T00:05:07;19.00;99.90
16655;DHT22;8441;51.344;7.022;2023-09-18T00:07:35;19.00;99.90
16655;DHT22;8441;51.344;7.022;2023-09-18T00:10:03;19.00;99.90
16655;DHT22;8441;51.344;7.022;2023-09-18T00:12:31;19.10;99.90
16655;DHT22;8441;51.344;7.022;2023-09-18T00:14:58;19.00;99.90
16655;DHT22;8441;51.344;7.022;2023-09-18T00:17:25;19.00;99.90
16655;DHT22;8441;51.344;7.022;2023-09-18T00:19:52;19.00;99.90
16655;DHT22;8441;51.344;7.022;2023-09-18T00:22:21;18.90;99.90
16655;DHT22;8441;51.344;7.022;2023-09-18T00:24:50;18.90;99.90
16655;DHT22;8441;51.344;7.022;2023-09-18T00:27:17;18.90;99.90
16655;DHT22;8441;51.344;7.022;2023-09-18T00:29:44;18.90;99.90
16655;DHT22;8441;51.344;7.022;2023-09-18T00:32:12;18.90;99.90
16655;DHT22;8441;51.344;7.022;2023-09-18T00:34:39;18.90;99.90
16655;DHT22;8441;51.344;7.022;2023-09-18T00:37:06;18.90;99.90
16655;DHT22;8441;51.344;7.022;2023-09-18T00:39:35;18.90;99.90
16655;DHT22;8441;51.344;7.022;2023-09-18T00:42:02;19.00;99.90
16655;DHT22;8441;51.344;7.022;2023-09-18T00:44:29;18.90;99.90
16655;DHT22;8441;51.344;7.022;2023-09-18T00:46:56;19.00;99.90
16655;DHT22;8441;51.344;7.022;2023-09-18T00:49:24;19.00;99.90
16655;DHT22;8441;51.344;7.022;2023-09-18T00:51:51;19.00;99.90
16655;DHT22;8441;51.344;7.022;2023-09-18T00:54:19;19.00;99.90
16655;DHT22;8441;51.344;7.022;2023-09-18T00:56:48;19.00;99.90
16655;DHT22;8441;51.344;7.022;2023-09-18T00:59:19;19.00;99.90
16655;DHT22;8441;51.344;7.022;2023-09-18T01:01:48;18.90;99.90
16655;DHT22;8441;51.344;7.022;2023-09-18T01:04:16;18.80;99.90
16655;DHT22;8441;51.344;7.022;2023-09-18T01:06:43;18.90;99.90
16655;DHT22;8441;51.344;7.022;2023-09-18T01:09:11;18.90;99.90
16655;DHT22;8441;51.344;7.022;2023-09-18T01:11:49;19.00;99.90
16655;DHT22;8441;51.344;7.022;2023-09-18T01:14:20;19.00;99.90
16655;DHT22;8441;51.344;7.022;2023-09-18T01:16:53;19.10;99.90
16655;DHT22;8441;51.344;7.022;2023-09-18T01:19:37;19.10;99.90
16655;DHT22;8441;51.344;7.022;2023-09-18T01:22:04;19.10;99.90
16655;DHT22;8441;51.344;7.022;2023-09-18T01:24:34;19.00;99.90
16655;DHT22;8441;51.344;7.022;2023-09-18T01:27:01;19.10;99.90
16655;DHT22;8441;51.344;7.022;2023-09-18T01:29:28;19.20;99.90
16655;DHT22;8441;51.344;7.022;2023-09-18T01:31:56;19.20;99.90
16655;DHT22;8441;51.344;7.022;2023-09-18T01:34:27;19.20;99.90
16655;DHT22;8441;51.344;7.022;2023-09-18T01:36:58;19.10;99.90
16655;DHT22;8441;51.344;7.022;2023-09-18T01:39:28;19.10;99.90
16655;DHT22;8441;51.344;7.022;2023-09-18T01:41:59;19.20;99.90
16655;DHT22;8441;51.344;7.022;2023-09-18T01:44:27;19.30;99.90
16655;DHT22;8441;51.344;7.022;2023-09-18T01:46:56;19.30;99.90
16655;DHT22;8441;51.344;7.022;2023-09-18T01:49:28;19.40;99.90
16655;DHT22;8441;51.344;7.022;2023-09-18T01:51:56;19.30;99.90
16655;DHT22;8441;51.344;7.022;2023-09-18T01:54:23;19.40;99.90
16655;DHT22;8441;51.344;7.022;2023-09-18T01:56:50;19.40;99.90
16655;DHT22;8441;51.344;7.022;2023-09-18T01:59:20;19.30;99.90
16655;DHT22;8441;51.344;7.022;2023-09-18T02:01:48;19.30;99.90
16655;DHT22;8441;51.344;7.022;2023-09-18T02:04:16;19.30;99.90
16655;DHT22;8441;51.344;7.022;2023-09-18T02:06:42;19.30;99.90
16655;DHT22;8441;51.344;7.022;2023-09-18T02:09:10;19.30;99.90
16655;DHT22;8441;51.344;7.022;2023-09-18T02:11:39;19.30;99.90
16655;DHT22;8441;51.344;7.022;2023-09-18T02:14:07;19.20;99.90
16655;DHT22;8441;51.344;7.022;2023-09-18T02:16:37;19.30;99.90
16655;DHT22;8441;51.344;7.022;2023-09-18T02:19:07;19.30;99.90
16655;DHT22;8441;51.344;7.022;2023-09-18T02:21:35;19.30;99.90
16655;DHT22;8441;51.344;7.022;2023-09-18T02:24:03;19.30;99.90
16655;DHT22;8441;51.344;7.022;2023-09-18T02:26:30;19.50;99.90
16655;DHT22;8441;51.344;7.022;2023-09-18T02:28:59;19.50;99.90
16655;DHT22;8441;51.344;7.022;2023-09-18T02:31:26;19.50;99.90
16655;DHT22;8441;51.344;7.022;2023-09-18T02:33:56;19.40;99.90
16655;DHT22;8441;51.344;7.022;2023-09-18T02:36:23;19.30;99.90
16655;DHT22;8441;51.344;7.022;2023-09-18T02:38:50;19.40;99.90
16655;DHT22;8441;51.344;7.022;2023-09-18T02:41:17;19.30;99.90
16655;DHT22;8441;51.344;7.022;2023-09-18T02:43:44;19.50;99.90
16655;DHT22;8441;51.344;7.022;2023-09-18T02:46:12;19.50;99.90
16655;DHT22;8441;51.344;7.022;2023-09-18T02:48:39;19.60;99.90
16655;DHT22;8441;51.344;7.022;2023-09-18T02:51:08;19.60;99.90
16655;DHT22;8441;51.344;7.022;2023-09-18T02:53:35;19.60;99.90
16655;DHT22;8441;51.344;7.022;2023-09-18T02:56:03;19.70;99.90
16655;DHT22;8441;51.344;7.022;2023-09-18T02:58:30;19.90;99.90
16655;DHT22;8441;51.344;7.022;2023-09-18T03:00:57;20.30;99.90
16655;DHT22;8441;51.344;7.022;2023-09-18T03:03:25;20.60;99.90
16655;DHT22;8441;51.344;7.022;2023-09-18T03:05:52;20.70;99.90
16655;DHT22;8441;51.344;7.022;2023-09-18T03:08:21;20.70;99.90
16655;DHT22;8441;51.344;7.022;2023-09-18T03:10:48;20.70;99.90
16655;DHT22;8441;51.344;7.022;2023-09-18T03:13:15;20.70;99.90
16655;DHT22;8441;51.344;7.022;2023-09-18T03:15:46;20.60;99.90
16655;DHT22;8441;51.344;7.022;2023-09-18T03:18:14;20.60;99.90
16655;DHT22;8441;51.344;7.022;2023-09-18T03:20:41;20.60;99.90
16655;DHT22;8441;51.344;7.022;2023-09-18T03:23:08;20.60;99.90
16655;DHT22;8441;51.344;7.022;2023-09-18T03:25:37;20.70;99.90
16655;DHT22;8441;51.344;7.022;2023-09-18T03:28:04;20.60;99.90
16655;DHT22;8441;51.344;7.022;2023-09-18T03:30:32;20.60;99.90
16655;DHT22;8441;51.344;7.022;2023-09-18T03:32:59;20.60;99.90
16655;DHT22;8441;51.344;7.022;2023-09-18T03:35:30;20.60;99.90
16655;DHT22;8441;51.344;7.022;2023-09-18T03:37:58;20.60;99.90
16655;DHT22;8441;51.344;7.022;2023-09-18T03:40:25;20.60;99.90
16655;DHT22;8441;51.344;7.022;2023-09-18T03:42:54;20.70;99.90
16655;DHT22;8441;51.344;7.022;2023-09-18T03:45:21;20.60;99.90
16655;DHT22;8441;51.344;7.022;2023-09-18T03:47:48;20.60;99.90
16655;DHT22;8441;51.344;7.022;2023-09-18T03:50:17;20.60;99.90
16655;DHT22;8441;51.344;7.022;2023-09-18T03:52:44;20.60;99.90
16655;DHT22;8441;51.344;7.022;2023-09-18T03:55:11;20.50;99.90
16655;DHT22;8441;51.344;7.022;2023-09-18T03:57:39;20.40;99.90
16655;DHT22;8441;51.344;7.022;2023-09-18T04:00:08;20.30;99.90
16655;DHT22;8441;51.344;7.022;2023-09-18T04:02:36;20.30;99.90
16655;DHT22;8441;51.344;7.022;2023-09-18T04:05:04;20.30;99.90
16655;DHT22;8441;51.344;7.022;2023-09-18T04:07:32;20.20;99.90
16655;DHT22;8441;51.344;7.022;2023-09-18T04:10:00;20.10;99.90
16655;DHT22;8441;51.344;7.022;2023-09-18T04:12:27;20.00;99.90
16655;DHT22;8441;51.344;7.022;2023-09-18T04:14:54;20.10;99.90
16655;DHT22;8441;51.344;7.022;2023-09-18T04:17:23;20.00;99.90
16655;DHT22;8441;51.344;7.022;2023-09-18T04:19:50;20.00;99.90
16655;DHT22;8441;51.344;7.022;2023-09-18T04:22:18;20.00;99.90
16655;DHT22;8441;51.344;7.022;2023-09-18T04:24:45;19.90;99.90
16655;DHT22;8441;51.344;7.022;2023-09-18T04:27:12;19.80;99.90
16655;DHT22;8441;51.344;7.022;2023-09-18T04:29:39;19.80;99.90
16655;DHT22;8441;51.344;7.022;2023-09-18T04:32:06;19.80;99.90
16655;DHT22;8441;51.344;7.022;2023-09-18T04:34:35;19.80;99.90
16655;DHT22;8441;51.344;7.022;2023-09-18T04:37:02;19.80;99.90
16655;DHT22;8441;51.344;7.022;2023-09-18T04:39:30;19.80;99.90
16655;DHT22;8441;51.344;7.022;2023-09-18T04:42:01;19.70;99.90
16655;DHT22;8441;51.344;7.022;2023-09-18T04:44:30;19.70;99.90
16655;DHT22;8441;51.344;7.022;2023-09-18T04:46:57;19.70;99.90
16655;DHT22;8441;51.344;7.022;2023-09-18T04:49:25;19.60;99.90
16655;DHT22;8441;51.344;7.022;2023-09-18T04:51:55;19.60;99.90
16655;DHT22;8441;51.344;7.022;2023-09-18T04:54:22;19.50;99.90
16655;DHT22;8441;51.344;7.022;2023-09-18T04:56:49;19.50;99.90
16655;DHT22;8441;51.344;7.022;2023-09-18T04:59:16;19.50;99.90
16655;DHT22;8441;51.344;7.022;2023-09-18T05:01:43;19.50;99.90
16655;DHT22;8441;51.344;7.022;2023-09-18T05:04:10;19.50;99.90
16655;DHT22;8441;51.344;7.022;2023-09-18T05:06:38;19.50;99.90
16655;DHT22;8441;51.344;7.022;2023-09-18T05:09:09;19.50;99.90
16655;DHT22;8441;51.344;7.022;2023-09-18T05:11:36;19.50;99.90
16655;DHT22;8441;51.344;7.022;2023-09-18T05:14:04;19.40;99.90
16655;DHT22;8441;51.344;7.022;2023-09-18T05:16:31;19.30;99.90
16655;DHT22;8441;51.344;7.022;2023-09-18T05:18:59;19.30;99.90
16655;DHT22;8441;51.344;7.022;2023-09-18T05:21:26;19.30;99.90
16655;DHT22;8441;51.344;7.022;2023-09-18T05:23:53;19.30;99.90
16655;DHT22;8441;51.344;7.022;2023-09-18T05:26:21;19.30;99.90
16655;DHT22;8441;51.344;7.022;2023-09-18T05:28:50;19.30;99.90
16655;DHT22;8441;51.344;7.022;2023-09-18T05:31:19;19.30;99.90
16655;DHT22;8441;51.344;7.022;2023-09-18T05:33:46;19.30;99.90
16655;DHT22;8441;51.344;7.022;2023-09-18T05:36:14;19.30;99.90
16655;DHT22;8441;51.344;7.022;2023-09-18T05:38:41;19.40;99.90
16655;DHT22;8441;51.344;7.022;2023-09-18T05:41:09;19.40;99.90
16655;DHT22;8441;51.344;7.022;2023-09-18T05:43:38;19.40;99.90
16655;DHT22;8441;51.344;7.022;2023-09-18T05:46:05;19.40;99.90
16655;DHT22;8441;51.344;7.022;2023-09-18T05:48:32;19.40;99.90
16655;DHT22;8441;51.344;7.022;2023-09-18T05:50:59;19.40;99.90
16655;DHT22;8441;51.344;7.022;2023-09-18T05:53:26;19.40;99.90
16655;DHT22;8441;51.344;7.022;2023-09-18T05:55:53;19.40;99.90
16655;DHT22;8441;51.344;7.022;2023-09-18T05:58:22;19.50;99.90
16655;DHT22;8441;51.344;7.022;2023-09-18T06:00:52;19.50;99.90
16655;DHT22;8441;51.344;7.022;2023-09-18T06:03:19;19.50;99.90
16655;DHT22;8441;51.344;7.022;2023-09-18T06:05:47;19.50;99.90
16655;DHT22;8441;51.344;7.022;2023-09-18T06:08:14;19.50;99.90
16655;DHT22;8441;51.344;7.022;2023-09-18T06:10:41;19.60;99.90
16655;DHT22;8441;51.344;7.022;2023-09-18T06:13:09;19.60;99.90
16655;DHT22;8441;51.344;7.022;2023-09-18T06:15:36;19.60;99.90
16655;DHT22;8441;51.344;7.022;2023-09-18T06:18:04;19.60;99.90
16655;DHT22;8441;51.344;7.022;2023-09-18T06:20:33;19.60;99.90
16655;DHT22;8441;51.344;7.022;2023-09-18T06:23:00;19.60;99.90
16655;DHT22;8441;51.344;7.022;2023-09-18T06:25:29;19.70;99.90
16655;DHT22;8441;51.344;7.022;2023-09-18T06:27:57;19.70;99.90
16655;DHT22;8441;51.344;7.022;2023-09-18T06:30:26;19.70;99.90
16655;DHT22;8441;51.344;7.022;2023-09-18T06:32:55;19.70;99.90
16655;DHT22;8441;51.344;7.022;2023-09-18T06:35:23;19.70;99.90
16655;DHT22;8441;51.344;7.022;2023-09-18T06:37:51;19.80;99.90
16655;DHT22;8441;51.344;7.022;2023-09-18T06:40:20;19.80;99.90
16655;DHT22;8441;51.344;7.022;2023-09-18T06:42:47;19.80;99.90
16655;DHT22;8441;51.344;7.022;2023-09-18T06:45:15;19.90;99.90
16655;DHT22;8441;51.344;7.022;2023-09-18T06:47:42;19.90;99.90
16655;DHT22;8441;51.344;7.022;2023-09-18T06:50:10;19.90;99.90
16655;DHT22;8441;51.344;7.022;2023-09-18T06:52:39;19.90;99.90
16655;DHT22;8441;51.344;7.022;2023-09-18T06:55:07;20.00;99.90
16655;DHT22;8441;51.344;7.022;2023-09-18T06:57:34;20.00;99.90
16655;DHT22;8441;51.344;7.022;2023-09-18T07:00:01;19.90;99.90
16655;DHT22;8441;51.344;7.022;2023-09-18T07:02:28;19.90;99.90
16655;DHT22;8441;51.344;7.022;2023-09-18T07:04:55;20.00;99.90
16655;DHT22;8441;51.344;7.022;2023-09-18T07:07:23;20.10;99.90
16655;DHT22;8441;51.344;7.022;2023-09-18T07:09:52;20.10;99.90
16655;DHT22;8441;51.344;7.022;2023-09-18T07:12:19;20.20;99.90
16655;DHT22;8441;51.344;7.022;2023-09-18T07:14:47;20.20;99.90
16655;DHT22;8441;51.344;7.022;2023-09-18T07:17:14;20.20;99.90
16655;DHT22;8441;51.344;7.022;2023-09-18T07:19:42;20.30;99.90
16655;DHT22;8441;51.344;7.022;2023-09-18T07:22:09;20.40;99.90
16655;DHT22;8441;51.344;7.022;2023-09-18T07:24:36;20.50;99.90
16655;DHT22;8441;51.344;7.022;2023-09-18T07:27:08;20.60;99.90
16655;DHT22;8441;51.344;7.022;2023-09-18T07:29:35;20.60;99.90
16655;DHT22;8441;51.344;7.022;2023-09-18T07:32:03;20.70;99.90
16655;DHT22;8441;51.344;7.022;2023-09-18T07:34:30;20.80;99.90
16655;DHT22;8441;51.344;7.022;2023-09-18T07:36:57;20.80;99.90
16655;DHT22;8441;51.344;7.022;2023-09-18T07:39:25;20.80;99.90
16655;DHT22;8441;51.344;7.022;2023-09-18T07:41:52;20.80;99.90
16655;DHT22;8441;51.344;7.022;2023-09-18T07:44:21;20.90;99.90
16655;DHT22;8441;51.344;7.022;2023-09-18T07:46:48;20.90;99.90
16655;DHT22;8441;51.344;7.022;2023-09-18T07:49:16;21.00;99.90
16655;DHT22;8441;51.344;7.022;2023-09-18T07:51:44;21.00;99.90
16655;DHT22;8441;51.344;7.022;2023-09-18T07:54:14;21.10;99.90
16655;DHT22;8441;51.344;7.022;2023-09-18T07:56:42;21.00;99.90
16655;DHT22;8441;51.344;7.022;2023-09-18T07:59:09;20.90;99.90
16655;DHT22;8441;51.344;7.022;2023-09-18T08:01:38;20.90;99.90
16655;DHT22;8441;51.344;7.022;2023-09-18T08:04:05;21.00;99.90
16655;DHT22;8441;51.344;7.022;2023-09-18T08:06:32;21.10;99.90
16655;DHT22;8441;51.344;7.022;2023-09-18T08:09:00;21.00;99.90
16655;DHT22;8441;51.344;7.022;2023-09-18T08:11:27;21.00;99.90
16655;DHT22;8441;51.344;7.022;2023-09-18T08:13:54;21.00;99.90
16655;DHT22;8441;51.344;7.022;2023-09-18T08:16:22;21.10;99.90
16655;DHT22;8441;51.344;7.022;2023-09-18T08:18:50;21.20;99.90
16655;DHT22;8441;51.344;7.022;2023-09-18T08:21:18;21.20;99.90
16655;DHT22;8441;51.344;7.022;2023-09-18T08:23:45;21.20;99.90
16655;DHT22;8441;51.344;7.022;2023-09-18T08:26:12;21.20;99.90
16655;DHT22;8441;51.344;7.022;2023-09-18T08:28:40;21.10;99.90
16655;DHT22;8441;51.344;7.022;2023-09-18T08:31:09;21.10;99.90
16655;DHT22;8441;51.344;7.022;2023-09-18T08:33:36;21.10;99.90
16655;DHT22;8441;51.344;7.022;2023-09-18T08:36:05;21.10;99.90
16655;DHT22;8441;51.344;7.022;2023-09-18T08:38:32;21.30;99.90
16655;DHT22;8441;51.344;7.022;2023-09-18T08:41:00;21.30;99.90
16655;DHT22;8441;51.344;7.022;2023-09-18T08:43:29;21.30;99.90
16655;DHT22;8441;51.344;7.022;2023-09-18T08:45:59;21.30;99.90
16655;DHT22;8441;51.344;7.022;2023-09-18T08:48:29;21.40;99.90
16655;DHT22;8441;51.344;7.022;2023-09-18T08:51:01;21.60;99.90
16655;DHT22;8441;51.344;7.022;2023-09-18T08:53:30;21.70;99.90
16655;DHT22;8441;51.344;7.022;2023-09-18T08:55:58;21.80;99.90
16655;DHT22;8441;51.344;7.022;2023-09-18T08:58:28;21.90;99.90
16655;DHT22;8441;51.344;7.022;2023-09-18T09:00:59;21.90;99.90
16655;DHT22;8441;51.344;7.022;2023-09-18T09:03:29;21.80;99.90
16655;DHT22;8441;51.344;7.022;2023-09-18T09:05:57;22.00;99.90
16655;DHT22;8441;51.344;7.022;2023-09-18T09:08:27;22.10;99.90
16655;DHT22;8441;51.344;7.022;2023-09-18T09:10:56;22.10;99.90
16655;DHT22;8441;51.344;7.022;2023-09-18T09:13:24;22.10;99.90
16655;DHT22;8441;51.344;7.022;2023-09-18T09:15:53;22.20;99.90
16655;DHT22;8441;51.344;7.022;2023-09-18T09:18:22;22.50;99.90
16655;DHT22;8441;51.344;7.022;2023-09-18T09:20:56;22.60;99.90
16655;DHT22;8441;51.344;7.022;2023-09-18T09:23:25;22.80;99.90
16655;DHT22;8441;51.344;7.022;2023-09-18T09:25:53;22.80;99.90
16655;DHT22;8441;51.344;7.022;2023-09-18T09:28:31;22.70;99.90
16655;DHT22;8441;51.344;7.022;2023-09-18T09:31:01;22.50;99.90
16655;DHT22;8441;51.344;7.022;2023-09-18T09:33:29;22.60;99.90
16655;DHT22;8441;51.344;7.022;2023-09-18T09:35:57;22.60;99.90
16655;DHT22;8441;51.344;7.022;2023-09-18T09:38:29;22.70;99.90
16655;DHT22;8441;51.344;7.022;2023-09-18T09:40:58;22.70;99.90
16655;DHT22;8441;51.344;7.022;2023-09-18T09:43:26;22.80;99.90
16655;DHT22;8441;51.344;7.022;2023-09-18T09:45:58;22.70;99.90
16655;DHT22;8441;51.344;7.022;2023-09-18T09:48:26;22.70;99.90
16655;DHT22;8441;51.344;7.022;2023-09-18T09:50:58;22.70;99.90
16655;DHT22;8441;51.344;7.022;2023-09-18T09:53:45;22.80;99.90
16655;DHT22;8441;51.344;7.022;2023-09-18T09:56:14;22.90;99.90
16655;DHT22;8441;51.344;7.022;2023-09-18T09:59:00;23.00;99.90
16655;DHT22;8441;51.344;7.022;2023-09-18T10:01:32;23.30;99.90
16655;DHT22;8441;51.344;7.022;2023-09-18T10:04:00;23.30;99.90
16655;DHT22;8441;51.344;7.022;2023-09-18T10:06:34;23.20;99.90
16655;DHT22;8441;51.344;7.022;2023-09-18T10:09:02;23.20;99.90
16655;DHT22;8441;51.344;7.022;2023-09-18T10:11:31;23.00;99.90
16655;DHT22;8441;51.344;7.022;2023-09-18T10:14:07;23.00;99.90
16655;DHT22;8441;51.344;7.022;2023-09-18T10:16:41;22.90;99.90
16655;DHT22;8441;51.344;7.022;2023-09-18T10:19:17;22.90;99.90
16655;DHT22;8441;51.344;7.022;2023-09-18T10:21:56;22.80;99.90
16655;DHT22;8441;51.344;7.022;2023-09-18T10:24:28;23.00;99.90
16655;DHT22;8441;51.344;7.022;2023-09-18T10:27:00;23.00;99.90
16655;DHT22;8441;51.344;7.022;2023-09-18T10:29:33;23.00;99.90
16655;DHT22;8441;51.344;7.022;2023-09-18T10:32:03;23.00;99.90
16655;DHT22;8441;51.344;7.022;2023-09-18T10:34:31;23.00;99.90
16655;DHT22;8441;51.344;7.022;2023-09-18T10:37:01;22.90;99.90
16655;DHT22;8441;51.344;7.022;2023-09-18T10:39:31;23.00;99.90
16655;DHT22;8441;51.344;7.022;2023-09-18T10:42:01;23.00;99.90
16655;DHT22;8441;51.344;7.022;2023-09-18T10:44:29;23.00;99.90
16655;DHT22;8441;51.344;7.022;2023-09-18T10:46:58;23.00;99.90
16655;DHT22;8441;51.344;7.022;2023-09-18T10:49:28;22.90;99.90
16655;DHT22;8441;51.344;7.022;2023-09-18T10:51:56;22.80;99.90
16655;DHT22;8441;51.344;7.022;2023-09-18T10:54:26;22.90;99.90
16655;DHT22;8441;51.344;7.022;2023-09-18T10:56:56;22.90;99.90
16655;DHT22;8441;51.344;7.022;2023-09-18T10:59:23;23.00;99.90
16655;DHT22;8441;51.344;7.022;2023-09-18T11:01:51;23.10;99.90
16655;DHT22;8441;51.344;7.022;2023-09-18T11:04:19;23.00;99.90
16655;DHT22;8441;51.344;7.022;2023-09-18T11:07:04;23.10;99.90
16655;DHT22;8441;51.344;7.022;2023-09-18T11:09:40;23.20;99.90
16655;DHT22;8441;51.344;7.022;2023-09-18T11:12:08;23.20;99.90
16655;DHT22;8441;51.344;7.022;2023-09-18T11:14:48;23.30;99.90
16655;DHT22;8441;51.344;7.022;2023-09-18T11:17:34;23.40;99.90
16655;DHT22;8441;51.344;7.022;2023-09-18T11:20:10;23.50;99.90
16655;DHT22;8441;51.344;7.022;2023-09-18T11:22:47;23.60;99.90
16655;DHT22;8441;51.344;7.022;2023-09-18T11:25:36;23.50;99.90
16655;DHT22;8441;51.344;7.022;2023-09-18T11:28:05;23.50;99.90
16655;DHT22;8441;51.344;7.022;2023-09-18T11:30:34;23.60;99.90
16655;DHT22;8441;51.344;7.022;2023-09-18T11:33:03;23.70;99.90
16655;DHT22;8441;51.344;7.022;2023-09-18T11:35:31;23.80;99.90
16655;DHT22;8441;51.344;7.022;2023-09-18T11:38:08;24.00;99.90
16655;DHT22;8441;51.344;7.022;2023-09-18T11:40:37;24.20;99.90
16655;DHT22;8441;51.344;7.022;2023-09-18T11:43:21;24.40;99.90
16655;DHT22;8441;51.344;7.022;2023-09-18T11:45:53;24.50;99.90
16655;DHT22;8441;51.344;7.022;2023-09-18T11:48:22;24.40;99.90
16655;DHT22;8441;51.344;7.022;2023-09-18T11:50:53;24.30;99.90
16655;DHT22;8441;51.344;7.022;2023-09-18T11:53:24;24.40;99.90
16655;DHT22;8441;51.344;7.022;2023-09-18T11:55:51;24.50;99.90
16655;DHT22;8441;51.344;7.022;2023-09-18T11:58:18;24.70;99.90
16655;DHT22;8441;51.344;7.022;2023-09-18T12:00:49;24.90;99.90
16655;DHT22;8441;51.344;7.022;2023-09-18T12:03:18;24.60;99.90
16655;DHT22;8441;51.344;7.022;2023-09-18T12:05:52;24.30;99.90
16655;DHT22;8441;51.344;7.022;2023-09-18T12:08:22;24.00;99.90
16655;DHT22;8441;51.344;7.022;2023-09-18T12:10:52;24.10;99.90
16655;DHT22;8441;51.344;7.022;2023-09-18T12:13:19;24.30;99.90
16655;DHT22;8441;51.344;7.022;2023-09-18T12:15:47;24.30;99.90
16655;DHT22;8441;51.344;7.022;2023-09-18T12:18:15;24.50;99.90
16655;DHT22;8441;51.344;7.022;2023-09-18T12:20:47;24.90;99.90
16655;DHT22;8441;51.344;7.022;2023-09-18T12:23:15;25.00;99.90
16655;DHT22;8441;51.344;7.022;2023-09-18T12:25:47;24.90;99.90
16655;DHT22;8441;51.344;7.022;2023-09-18T12:28:15;24.70;99.90
16655;DHT22;8441;51.344;7.022;2023-09-18T12:30:43;24.60;99.90
16655;DHT22;8441;51.344;7.022;2023-09-18T12:33:12;24.80;99.90
16655;DHT22;8441;51.344;7.022;2023-09-18T12:35:40;24.80;99.90
16655;DHT22;8441;51.344;7.022;2023-09-18T12:38:18;24.60;99.90
16655;DHT22;8441;51.344;7.022;2023-09-18T12:40:54;24.70;99.90
16655;DHT22;8441;51.344;7.022;2023-09-18T12:43:21;24.90;99.90
16655;DHT22;8441;51.344;7.022;2023-09-18T12:45:50;25.20;99.90
16655;DHT22;8441;51.344;7.022;2023-09-18T12:48:18;25.20;99.90
16655;DHT22;8441;51.344;7.022;2023-09-18T12:50:46;25.10;99.90
16655;DHT22;8441;51.344;7.022;2023-09-18T12:53:22;25.00;99.90
16655;DHT22;8441;51.344;7.022;2023-09-18T12:55:49;24.90;99.90
16655;DHT22;8441;51.344;7.022;2023-09-18T12:58:20;24.80;99.90
16655;DHT22;8441;51.344;7.022;2023-09-18T13:00:50;24.70;99.90
16655;DHT22;8441;51.344;7.022;2023-09-18T13:03:17;24.60;99.90
16655;DHT22;8441;51.344;7.022;2023-09-18T13:05:45;24.30;99.90
16655;DHT22;8441;51.344;7.022;2023-09-18T13:08:14;24.10;99.90
16655;DHT22;8441;51.344;7.022;2023-09-18T13:10:43;24.20;99.90
16655;DHT22;8441;51.344;7.022;2023-09-18T13:13:16;24.50;99.90
16655;DHT22;8441;51.344;7.022;2023-09-18T13:15:46;24.70;99.90
16655;DHT22;8441;51.344;7.022;2023-09-18T13:18:14;24.80;99.90
16655;DHT22;8441;51.344;7.022;2023-09-18T13:20:42;24.70;99.90
16655;DHT22;8441;51.344;7.022;2023-09-18T13:23:09;24.70;99.90
16655;DHT22;8441;51.344;7.022;2023-09-18T13:25:38;24.90;99.90
16655;DHT22;8441;51.344;7.022;2023-09-18T13:28:09;24.90;99.90
16655;DHT22;8441;51.344;7.022;2023-09-18T13:30:38;24.70;99.90
16655;DHT22;8441;51.344;7.022;2023-09-18T13:33:08;24.40;99.90
16655;DHT22;8441;51.344;7.022;2023-09-18T13:35:37;24.40;99.90
16655;DHT22;8441;51.344;7.022;2023-09-18T13:38:05;24.50;99.90
16655;DHT22;8441;51.344;7.022;2023-09-18T13:40:33;24.70;99.90
16655;DHT22;8441;51.344;7.022;2023-09-18T13:43:02;24.70;99.90
16655;DHT22;8441;51.344;7.022;2023-09-18T13:45:30;24.70;99.90
16655;DHT22;8441;51.344;7.022;2023-09-18T13:47:57;24.90;99.90
16655;DHT22;8441;51.344;7.022;2023-09-18T13:50:26;24.90;99.90
16655;DHT22;8441;51.344;7.022;2023-09-18T13:52:53;24.70;99.90
16655;DHT22;8441;51.344;7.022;2023-09-18T13:55:20;24.80;99.90
16655;DHT22;8441;51.344;7.022;2023-09-18T13:57:48;24.60;99.90
16655;DHT22;8441;51.344;7.022;2023-09-18T14:00:15;24.50;99.90
16655;DHT22;8441;51.344;7.022;2023-09-18T14:02:42;24.40;99.90
16655;DHT22;8441;51.344;7.022;2023-09-18T14:05:10;24.70;99.90
16655;DHT22;8441;51.344;7.022;2023-09-18T14:07:39;24.80;99.90
16655;DHT22;8441;51.344;7.022;2023-09-18T14:10:07;24.90;99.90
16655;DHT22;8441;51.344;7.022;2023-09-18T14:12:36;24.90;99.90
16655;DHT22;8441;51.344;7.022;2023-09-18T14:15:04;24.80;99.90
16655;DHT22;8441;51.344;7.022;2023-09-18T14:17:31;24.90;99.90
16655;DHT22;8441;51.344;7.022;2023-09-18T14:19:59;25.10;99.90
16655;DHT22;8441;51.344;7.022;2023-09-18T14:22:26;25.00;99.90
16655;DHT22;8441;51.344;7.022;2023-09-18T14:24:55;25.00;99.90
16655;DHT22;8441;51.344;7.022;2023-09-18T14:27:22;25.10;99.90
16655;DHT22;8441;51.344;7.022;2023-09-18T14:29:49;25.00;99.90
16655;DHT22;8441;51.344;7.022;2023-09-18T14:32:16;24.80;99.90
16655;DHT22;8441;51.344;7.022;2023-09-18T14:34:44;24.60;99.90
16655;DHT22;8441;51.344;7.022;2023-09-18T14:37:12;24.50;99.90
16655;DHT22;8441;51.344;7.022;2023-09-18T14:39:40;24.40;99.90
16655;DHT22;8441;51.344;7.022;2023-09-18T14:42:08;24.40;99.90
16655;DHT22;8441;51.344;7.022;2023-09-18T14:44:35;24.40;99.90
16655;DHT22;8441;51.344;7.022;2023-09-18T14:47:05;24.30;99.90
16655;DHT22;8441;51.344;7.022;2023-09-18T14:49:33;24.30;99.90
16655;DHT22;8441;51.344;7.022;2023-09-18T14:52:00;24.30;99.90
16655;DHT22;8441;51.344;7.022;2023-09-18T14:54:27;24.40;99.90
16655;DHT22;8441;51.344;7.022;2023-09-18T14:56:54;24.50;99.90
16655;DHT22;8441;51.344;7.022;2023-09-18T14:59:23;24.50;99.90
16655;DHT22;8441;51.344;7.022;2023-09-18T15:01:50;24.50;99.90
16655;DHT22;8441;51.344;7.022;2023-09-18T15:04:17;24.40;99.90
16655;DHT22;8441;51.344;7.022;2023-09-18T15:06:44;24.40;99.90
16655;DHT22;8441;51.344;7.022;2023-09-18T15:09:12;24.40;99.90
16655;DHT22;8441;51.344;7.022;2023-09-18T15:11:39;24.40;99.90
16655;DHT22;8441;51.344;7.022;2023-09-18T15:14:06;24.50;99.90
16655;DHT22;8441;51.344;7.022;2023-09-18T15:16:36;24.50;99.90
16655;DHT22;8441;51.344;7.022;2023-09-18T15:19:04;24.50;99.90
16655;DHT22;8441;51.344;7.022;2023-09-18T15:21:34;24.40;99.90
16655;DHT22;8441;51.344;7.022;2023-09-18T15:24:02;24.40;99.90
16655;DHT22;8441;51.344;7.022;2023-09-18T15:26:29;24.30;99.90
16655;DHT22;8441;51.344;7.022;2023-09-18T15:28:57;24.30;99.90
16655;DHT22;8441;51.344;7.022;2023-09-18T15:31:25;24.20;99.90
16655;DHT22;8441;51.344;7.022;2023-09-18T15:33:54;24.20;99.90
16655;DHT22;8441;51.344;7.022;2023-09-18T15:36:21;24.20;99.90
16655;DHT22;8441;51.344;7.022;2023-09-18T15:38:49;24.20;99.90
16655;DHT22;8441;51.344;7.022;2023-09-18T15:41:17;24.10;99.90
16655;DHT22;8441;51.344;7.022;2023-09-18T15:43:44;24.10;99.90
16655;DHT22;8441;51.344;7.022;2023-09-18T15:46:12;24.10;99.90
16655;DHT22;8441;51.344;7.022;2023-09-18T15:48:43;24.20;99.90
16655;DHT22;8441;51.344;7.022;2023-09-18T15:51:12;24.10;99.90
16655;DHT22;8441;51.344;7.022;2023-09-18T15:53:39;24.10;99.90